Time;durP1;ratioP1;P1;durP2;ratioP2;P2;SDS_P1;SDS_P2;PMS_P1;PMS_P2;Temp;Humidity;BMP_temperature;BMP_pressure;BME280_temperature;BME280_humidity;BME280_pressure;Samples;Min_cycle;Max_cycle;Signal;HPM_P1;HPM_P2
2022/12/31 00:01:00;;;;;;;7.20;2.60;;;12.80;99.90;;;;;;4741094;30;20501;-79
2022/12/31 00:03:26;;;;;;;8.02;3.38;;;12.70;99.90;;;;;;4741768;30;20048;-78
2022/12/31 00:05:52;;;;;;;7.82;2.83;;;12.80;99.90;;;;;;4741219;30;20375;-78
2022/12/31 00:08:18;;;;;;;4.75;2.58;;;12.80;99.90;;;;;;4712426;30;20052;-78
2022/12/31 00:10:43;;;;;;;7.45;3.00;;;12.80;99.90;;;;;;4750000;30;20486;-75
2022/12/31 00:13:10;;;;;;;8.10;2.63;;;12.90;99.90;;;;;;4750654;30;20095;-78
2022/12/31 00:15:40;;;;;;;8.35;3.03;;;12.80;99.90;;;;;;4736131;30;20559;-77
2022/12/31 00:18:07;;;;;;;4.80;2.60;;;12.90;99.90;;;;;;4736300;30;20052;-78
2022/12/31 00:20:33;;;;;;;8.88;4.00;;;12.90;99.90;;;;;;4735997;30;20044;-76
2022/12/31 00:22:59;;;;;;;6.70;3.40;;;12.80;99.90;;;;;;4751004;30;20056;-77
2022/12/31 00:25:24;;;;;;;10.00;3.67;;;12.80;99.90;;;;;;4750715;30;20575;-78
2022/12/31 00:27:50;;;;;;;8.00;3.45;;;12.80;99.90;;;;;;4721839;30;20138;-81
2022/12/31 00:30:16;;;;;;;11.23;3.00;;;12.90;99.90;;;;;;4735778;30;20052;-75
2022/12/31 00:32:42;;;;;;;7.75;3.38;;;12.80;99.90;;;;;;4750862;30;20052;-77
2022/12/31 00:35:08;;;;;;;6.22;2.92;;;12.80;99.90;;;;;;4750964;30;20056;-77
2022/12/31 00:37:34;;;;;;;7.63;2.95;;;12.80;99.90;;;;;;4721605;30;20060;-78
2022/12/31 00:39:59;;;;;;;3.70;2.50;;;12.80;99.90;;;;;;4736332;30;20451;-78
2022/12/31 00:42:25;;;;;;;6.28;2.75;;;12.80;99.90;;;;;;4750432;30;20055;-77
2022/12/31 00:44:51;;;;;;;6.78;3.13;;;12.80;99.90;;;;;;4750641;30;20048;-78
2022/12/31 00:47:16;;;;;;;6.00;2.72;;;12.80;99.90;;;;;;4750509;30;20063;-79
2022/12/31 00:49:42;;;;;;;5.57;2.78;;;12.80;99.90;;;;;;4750524;30;20052;-76
2022/12/31 00:52:08;;;;;;;9.10;3.83;;;12.70;99.90;;;;;;4738954;30;20060;-79
2022/12/31 00:54:34;;;;;;;6.32;3.17;;;12.60;99.90;;;;;;4753884;30;20213;-79
2022/12/31 00:56:59;;;;;;;5.55;3.03;;;12.60;99.90;;;;;;4753940;30;20052;-77
2022/12/31 00:59:25;;;;;;;5.47;3.55;;;12.60;99.90;;;;;;4724604;30;20054;-78
2022/12/31 01:01:51;;;;;;;4.57;3.20;;;12.50;99.90;;;;;;4753830;30;20066;-80
2022/12/31 01:04:19;;;;;;;5.53;3.35;;;12.50;99.90;;;;;;4739233;30;20052;-79
2022/12/31 01:06:45;;;;;;;6.13;3.13;;;12.50;99.90;;;;;;4753721;30;20489;-79
2022/12/31 01:09:12;;;;;;;8.52;3.05;;;12.50;99.90;;;;;;4753697;30;20131;-78
2022/12/31 01:11:38;;;;;;;9.52;3.30;;;12.60;99.90;;;;;;4738863;30;20056;-76
2022/12/31 01:14:22;;;;;;;7.10;3.53;;;12.50;99.90;;;;;;4738950;30;20063;-79
2022/12/31 01:16:51;;;;;;;5.90;3.40;;;12.50;99.90;;;;;;4739012;30;20067;-78
2022/12/31 01:19:22;;;;;;;11.35;6.20;;;12.50;99.90;;;;;;4753307;30;20121;-78
2022/12/31 01:21:49;;;;;;;20.90;9.30;;;12.50;99.90;;;;;;4738880;30;20060;-79
2022/12/31 01:24:15;;;;;;;30.17;16.88;;;12.50;99.90;;;;;;4753387;30;20096;-78
2022/12/31 01:26:42;;;;;;;20.85;12.65;;;12.50;99.90;;;;;;4753266;30;20048;-78
2022/12/31 01:29:09;;;;;;;21.55;11.90;;;12.60;99.90;;;;;;4753313;30;20128;-78
2022/12/31 01:31:35;;;;;;;36.58;20.20;;;12.50;99.90;;;;;;4752905;30;20375;-80
2022/12/31 01:34:02;;;;;;;48.63;25.88;;;12.50;99.90;;;;;;4724184;30;20114;-78
2022/12/31 01:36:29;;;;;;;46.80;23.63;;;12.60;99.90;;;;;;4753192;30;20052;-75
2022/12/31 01:38:57;;;;;;;36.15;18.95;;;12.50;99.90;;;;;;4752980;30;20056;-77
2022/12/31 01:41:27;;;;;;;28.00;16.20;;;12.60;99.90;;;;;;4752944;30;20044;-76
2022/12/31 01:43:57;;;;;;;29.15;15.25;;;12.60;99.90;;;;;;4753303;30;20052;-77
2022/12/31 01:46:34;;;;;;;33.90;16.67;;;12.60;99.90;;;;;;4752909;30;20062;-76
2022/12/31 01:49:04;;;;;;;29.10;13.20;;;12.60;99.90;;;;;;4753238;30;20109;-76
2022/12/31 01:51:32;;;;;;;26.98;15.23;;;12.60;99.90;;;;;;4752874;30;20078;-77
2022/12/31 01:53:59;;;;;;;18.48;9.90;;;12.60;99.90;;;;;;4752944;30;20096;-78
2022/12/31 01:56:25;;;;;;;16.08;8.55;;;12.60;99.90;;;;;;4738224;30;20048;-78
2022/12/31 01:58:54;;;;;;;24.58;12.45;;;12.60;99.90;;;;;;4737972;30;20504;-78
2022/12/31 02:01:26;;;;;;;28.67;14.98;;;12.70;99.90;;;;;;4752837;30;20048;-76
2022/12/31 02:03:52;;;;;;;31.02;14.75;;;12.60;99.90;;;;;;4752119;30;20048;-75
2022/12/31 02:06:45;;;;;;;38.53;22.90;;;12.60;99.90;;;;;;4738125;30;20056;-76
2022/12/31 02:09:11;;;;;;;43.25;21.50;;;12.60;99.90;;;;;;4751984;30;20488;-76
2022/12/31 02:11:37;;;;;;;51.28;26.02;;;12.60;99.90;;;;;;4752535;30;20493;-77
2022/12/31 02:14:11;;;;;;;45.97;26.85;;;12.50;99.90;;;;;;4737999;30;20059;-78
2022/12/31 02:17:01;;;;;;;38.22;21.23;;;12.50;99.90;;;;;;4752525;30;20059;-78
2022/12/31 02:20:05;;;;;;;28.67;15.10;;;12.60;99.90;;;;;;4752821;30;20048;-77
2022/12/31 02:22:33;;;;;;;39.08;21.42;;;12.60;99.90;;;;;;4752599;30;20580;-78
2022/12/31 02:25:41;;;;;;;49.90;23.25;;;12.50;99.90;;;;;;4752143;30;20044;-77
2022/12/31 02:28:45;;;;;;;40.40;20.45;;;12.50;99.90;;;;;;4752435;30;20059;-80
2022/12/31 02:31:10;;;;;;;31.00;15.32;;;12.60;99.90;;;;;;4752100;30;20468;-78
2022/12/31 02:33:48;;;;;;;31.75;16.92;;;12.50;99.90;;;;;;4752203;30;20088;-78
2022/12/31 02:36:21;;;;;;;23.80;12.70;;;12.50;99.90;;;;;;4737592;30;20075;-79
2022/12/31 02:38:48;;;;;;;18.48;9.35;;;12.50;99.90;;;;;;4752060;30;20055;-78
2022/12/31 02:44:20;;;;;;;16.80;8.40;;;12.40;99.90;;;;;;4752318;30;20063;-78
2022/12/31 02:47:00;;;;;;;24.75;11.88;;;12.40;99.90;;;;;;4751676;30;20140;-77
2022/12/31 02:49:35;;;;;;;25.98;14.45;;;12.50;99.90;;;;;;4752113;30;20456;-80
2022/12/31 02:52:33;;;;;;;29.95;17.13;;;12.40;99.90;;;;;;4752165;30;20059;-77
2022/12/31 02:55:07;;;;;;;41.75;20.90;;;12.40;99.90;;;;;;4751772;30;20048;-77
2022/12/31 02:57:37;;;;;;;34.42;18.40;;;12.40;99.90;;;;;;4752081;30;20147;-76
2022/12/31 03:02:52;;;;;;;23.92;12.82;;;12.40;99.90;;;;;;4751418;30;20406;-77
2022/12/31 03:05:22;;;;;;;26.83;15.43;;;12.40;99.90;;;;;;4737190;30;20060;-78
2022/12/31 03:07:48;;;;;;;34.60;18.88;;;12.50;99.90;;;;;;4751521;30;20441;-78
2022/12/31 03:10:14;;;;;;;39.70;22.42;;;12.40;99.90;;;;;;4736723;30;20062;-78
2022/12/31 03:12:45;;;;;;;44.15;22.48;;;12.40;99.90;;;;;;4751461;30;20103;-79
2022/12/31 03:15:24;;;;;;;37.30;20.15;;;12.40;99.90;;;;;;4751377;30;20056;-79
2022/12/31 03:17:53;;;;;;;36.38;21.58;;;12.40;99.90;;;;;;4751375;30;20058;-79
2022/12/31 03:23:07;;;;;;;39.65;20.02;;;12.30;99.90;;;;;;4751511;30;20060;-79
2022/12/31 03:25:39;;;;;;;37.17;22.08;;;12.30;99.90;;;;;;4751323;30;20048;-79
2022/12/31 03:28:12;;;;;;;49.08;24.50;;;12.30;99.90;;;;;;4751306;30;20048;-80
2022/12/31 03:30:40;;;;;;;43.58;22.20;;;12.20;99.90;;;;;;4751079;30;20131;-80
2022/12/31 03:33:06;;;;;;;36.80;20.20;;;12.20;99.90;;;;;;4751042;30;20063;-79
2022/12/31 03:35:34;;;;;;;32.65;17.35;;;12.20;99.90;;;;;;4751326;30;20156;-79
2022/12/31 03:38:01;;;;;;;29.38;16.45;;;12.10;99.90;;;;;;4751067;30;20096;-79
2022/12/31 03:40:29;;;;;;;42.35;22.75;;;12.10;99.90;;;;;;4750970;30;20055;-80
2022/12/31 03:42:55;;;;;;;32.92;18.55;;;12.10;99.90;;;;;;4751004;30;20520;-76
2022/12/31 03:45:22;;;;;;;35.75;20.88;;;12.10;99.90;;;;;;4751167;30;20052;-79
2022/12/31 03:47:48;;;;;;;25.30;15.68;;;12.10;99.90;;;;;;4750520;30;20106;-77
2022/12/31 03:50:16;;;;;;;21.08;11.45;;;12.10;99.90;;;;;;4750809;30;20502;-77
2022/12/31 03:52:42;;;;;;;22.95;11.55;;;12.00;99.90;;;;;;4736413;30;20052;-77
2022/12/31 03:55:09;;;;;;;18.65;11.13;;;12.00;99.90;;;;;;4750936;30;20379;-79
2022/12/31 03:57:35;;;;;;;22.50;14.68;;;12.00;99.90;;;;;;4751020;30;20441;-79
2022/12/31 04:00:02;;;;;;;17.60;10.30;;;11.90;99.90;;;;;;4736255;30;20222;-77
2022/12/31 04:02:27;;;;;;;23.40;12.93;;;11.90;99.90;;;;;;4750961;30;20059;-77
2022/12/31 04:04:53;;;;;;;28.25;15.82;;;11.90;99.90;;;;;;4750824;30;20048;-79
2022/12/31 04:07:19;;;;;;;27.63;16.55;;;11.90;99.90;;;;;;4751027;30;20059;-78
2022/12/31 04:09:45;;;;;;;33.10;19.55;;;11.80;99.90;;;;;;4750836;30;20045;-79
2022/12/31 04:12:10;;;;;;;31.00;18.58;;;11.90;99.90;;;;;;4721285;30;20481;-77
2022/12/31 04:14:36;;;;;;;34.67;19.55;;;11.80;99.90;;;;;;4736154;30;20074;-77
2022/12/31 04:17:02;;;;;;;35.20;18.33;;;11.80;99.90;;;;;;4736018;30;20044;-78
2022/12/31 04:19:27;;;;;;;32.38;18.35;;;11.80;99.90;;;;;;4750897;30;20500;-78
2022/12/31 04:21:53;;;;;;;18.98;12.13;;;11.80;99.90;;;;;;4735971;30;20056;-78
2022/12/31 04:24:19;;;;;;;10.50;5.78;;;11.80;99.90;;;;;;4750735;30;20395;-78
2022/12/31 04:26:44;;;;;;;6.35;3.63;;;11.70;99.90;;;;;;4738489;30;20398;-76
2022/12/31 04:29:10;;;;;;;7.90;2.60;;;11.80;99.90;;;;;;4739780;30;20500;-79
2022/12/31 04:31:36;;;;;;;3.72;1.45;;;11.70;99.90;;;;;;4753999;30;20045;-76
2022/12/31 04:34:02;;;;;;;1.30;0.80;;;11.70;99.90;;;;;;4739061;30;20066;-75
2022/12/31 04:36:28;;;;;;;1.90;1.10;;;11.70;99.90;;;;;;4754031;30;20048;-77
2022/12/31 04:38:54;;;;;;;1.67;1.10;;;11.70;99.90;;;;;;4738822;30;20052;-79
2022/12/31 04:41:20;;;;;;;5.25;1.30;;;11.70;99.90;;;;;;4754083;30;20137;-78
2022/12/31 04:43:50;;;;;;;4.28;1.27;;;11.60;99.90;;;;;;4753879;30;20052;-77
2022/12/31 04:46:18;;;;;;;3.90;1.30;;;11.60;99.90;;;;;;4753449;30;20052;-79
2022/12/31 04:48:44;;;;;;;5.68;1.67;;;11.60;99.90;;;;;;4738670;30;20101;-78
2022/12/31 04:51:10;;;;;;;5.60;1.83;;;11.60;99.90;;;;;;4738746;30;20434;-78
2022/12/31 04:53:36;;;;;;;3.13;1.90;;;11.60;99.90;;;;;;4739136;30;20055;-78
2022/12/31 04:56:03;;;;;;;3.90;2.13;;;11.70;99.90;;;;;;4738790;30;20090;-78
2022/12/31 04:58:29;;;;;;;6.90;3.55;;;11.70;99.90;;;;;;4738970;30;20056;-79
2022/12/31 05:00:56;;;;;;;5.18;2.10;;;11.60;99.90;;;;;;4738799;30;20054;-77
2022/12/31 05:03:24;;;;;;;5.53;2.50;;;11.70;99.90;;;;;;4753539;30;20059;-79
2022/12/31 05:05:51;;;;;;;4.22;2.75;;;11.60;99.90;;;;;;4753545;30;20502;-79
2022/12/31 05:08:17;;;;;;;8.00;4.85;;;11.60;99.90;;;;;;4753295;30;20048;-78
2022/12/31 05:10:47;;;;;;;10.68;5.82;;;11.60;99.90;;;;;;4738604;30;20055;-78
2022/12/31 05:13:14;;;;;;;11.68;6.70;;;11.70;99.90;;;;;;4753257;30;20409;-77
2022/12/31 05:15:40;;;;;;;6.75;4.15;;;11.70;99.90;;;;;;4753444;30;20108;-78
2022/12/31 05:18:07;;;;;;;7.80;3.10;;;11.70;99.90;;;;;;4753236;30;20470;-77
2022/12/31 05:20:33;;;;;;;2.50;2.00;;;11.80;99.90;;;;;;4753325;30;20075;-77
2022/12/31 05:22:59;;;;;;;4.30;2.13;;;11.80;99.90;;;;;;4753060;30;20501;-77
2022/12/31 05:25:24;;;;;;;3.58;2.13;;;11.80;99.90;;;;;;4753284;30;20060;-79
2022/12/31 05:27:50;;;;;;;6.78;2.50;;;11.70;99.90;;;;;;4738471;30;20056;-78
2022/12/31 05:30:17;;;;;;;5.28;2.47;;;11.70;99.90;;;;;;4738030;30;20109;-80
2022/12/31 05:32:43;;;;;;;5.18;2.30;;;11.70;99.90;;;;;;4738348;30;20390;-79
2022/12/31 05:35:09;;;;;;;5.72;2.78;;;11.60;99.90;;;;;;4738206;30;20067;-79
2022/12/31 05:37:35;;;;;;;4.18;2.00;;;11.60;99.90;;;;;;4738214;30;20056;-79
2022/12/31 05:40:01;;;;;;;8.38;2.55;;;11.60;99.90;;;;;;4738209;30;20079;-79
2022/12/31 05:42:27;;;;;;;5.03;2.33;;;11.70;99.90;;;;;;4723727;30;20048;-79
2022/12/31 05:44:53;;;;;;;4.75;2.53;;;11.60;99.90;;;;;;4723720;30;20052;-80
2022/12/31 05:47:18;;;;;;;4.50;2.22;;;11.60;99.90;;;;;;4752471;30;20178;-79
2022/12/31 05:49:44;;;;;;;7.38;2.58;;;11.60;99.90;;;;;;4752651;30;20502;-79
2022/12/31 05:52:10;;;;;;;3.90;2.28;;;11.60;99.90;;;;;;4737895;30;20044;-79
2022/12/31 05:54:36;;;;;;;6.13;2.35;;;11.60;99.90;;;;;;4752798;30;20052;-79
2022/12/31 05:57:03;;;;;;;5.15;2.60;;;11.70;99.90;;;;;;4737874;30;20393;-79
2022/12/31 05:59:29;;;;;;;7.22;2.83;;;11.60;99.90;;;;;;4723236;30;20458;-79
2022/12/31 06:01:55;;;;;;;3.60;2.40;;;11.60;99.90;;;;;;4737903;30;20060;-78
2022/12/31 06:04:21;;;;;;;4.25;2.40;;;11.70;99.90;;;;;;4752091;30;20077;-78
2022/12/31 06:06:47;;;;;;;4.65;2.20;;;11.70;99.90;;;;;;4752642;30;20068;-79
2022/12/31 06:09:14;;;;;;;4.18;2.28;;;11.60;99.90;;;;;;4737433;30;20471;-78
2022/12/31 06:11:40;;;;;;;4.65;2.30;;;11.60;99.90;;;;;;4737724;30;20542;-78
2022/12/31 06:14:06;;;;;;;4.97;2.67;;;11.70;99.90;;;;;;4752119;30;20055;-78
2022/12/31 06:16:31;;;;;;;4.53;1.95;;;11.70;99.90;;;;;;4752164;30;20056;-78
2022/12/31 06:18:57;;;;;;;5.28;2.13;;;11.70;99.90;;;;;;4737726;30;20374;-78
2022/12/31 06:21:23;;;;;;;7.25;2.78;;;11.70;99.90;;;;;;4722706;30;20104;-77
2022/12/31 06:23:49;;;;;;;5.65;2.83;;;11.60;99.90;;;;;;4723033;30;20095;-78
2022/12/31 06:26:15;;;;;;;6.10;3.42;;;11.70;99.90;;;;;;4751946;30;20064;-78
2022/12/31 06:28:41;;;;;;;6.68;3.63;;;11.70;99.90;;;;;;4752076;30;20052;-78
2022/12/31 06:31:10;;;;;;;8.75;3.88;;;11.70;99.90;;;;;;4751930;30;20203;-79
2022/12/31 06:33:36;;;;;;;8.82;3.30;;;11.70;99.90;;;;;;4752052;30;20064;-79
2022/12/31 06:36:05;;;;;;;11.35;4.30;;;11.70;99.90;;;;;;4737009;30;20395;-81
2022/12/31 06:38:33;;;;;;;7.15;3.67;;;11.70;99.90;;;;;;4751723;30;20060;-80
2022/12/31 06:41:03;;;;;;;5.85;3.83;;;11.70;99.90;;;;;;4737232;30;20048;-81
2022/12/31 06:43:28;;;;;;;6.32;4.25;;;11.70;99.90;;;;;;4736731;30;20090;-79
2022/12/31 06:46:03;;;;;;;8.45;3.65;;;11.70;99.90;;;;;;4630415;29;10000924;-79
2022/12/31 06:48:29;;;;;;;6.82;3.83;;;11.80;99.90;;;;;;4719560;30;20271;-77
2022/12/31 06:50:55;;;;;;;14.02;6.05;;;11.70;99.90;;;;;;4749294;30;20063;-76
2022/12/31 06:53:20;;;;;;;7.60;4.43;;;11.80;99.90;;;;;;4749476;30;20052;-78
2022/12/31 06:55:49;;;;;;;7.78;4.40;;;11.80;99.90;;;;;;4748969;30;20494;-79
2022/12/31 06:58:16;;;;;;;6.55;3.83;;;11.80;99.90;;;;;;4748515;30;20044;-79
2022/12/31 07:01:00;;;;;;;7.95;3.90;;;11.70;99.90;;;;;;4741899;30;20064;-78
2022/12/31 07:03:55;;;;;;;9.35;5.07;;;11.80;99.90;;;;;;4724764;30;20060;-79
2022/12/31 07:06:31;;;;;;;7.38;3.80;;;11.80;99.90;;;;;;4716068;30;20232;-79
2022/12/31 07:09:12;;;;;;;7.20;4.35;;;11.80;99.90;;;;;;4746345;30;20452;-79
2022/12/31 07:11:53;;;;;;;6.90;4.50;;;11.70;99.90;;;;;;4743789;30;20126;-79
2022/12/31 07:14:25;;;;;;;12.98;7.10;;;11.70;99.90;;;;;;4734326;30;20067;-78
2022/12/31 07:17:15;;;;;;;9.00;4.60;;;11.70;99.90;;;;;;4749026;30;20060;-78
2022/12/31 07:20:04;;;;;;;11.57;5.57;;;11.70;99.90;;;;;;4749041;30;20059;-78
2022/12/31 07:22:30;;;;;;;13.30;7.97;;;11.80;99.90;;;;;;4748542;30;20486;-79
2022/12/31 07:24:56;;;;;;;15.93;9.45;;;11.70;99.90;;;;;;4734263;30;20055;-78
2022/12/31 07:27:57;;;;;;;26.67;11.75;;;11.70;99.90;;;;;;4748615;30;20056;-77
2022/12/31 07:30:23;;;;;;;17.63;10.80;;;11.70;99.90;;;;;;4748563;30;20048;-78
2022/12/31 07:33:01;;;;;;;21.60;11.23;;;11.70;99.90;;;;;;4749151;30;20060;-78
2022/12/31 07:35:58;;;;;;;28.42;16.50;;;11.60;99.90;;;;;;4748479;30;20056;-78
2022/12/31 07:38:55;;;;;;;42.13;22.10;;;11.60;99.90;;;;;;4748968;30;20062;-79
2022/12/31 07:41:42;;;;;;;22.23;11.77;;;11.70;99.90;;;;;;4748741;30;20095;-78
2022/12/31 07:44:11;;;;;;;18.98;9.80;;;11.50;99.90;;;;;;4748973;30;20139;-79
2022/12/31 07:46:56;;;;;;;8.32;5.75;;;11.60;99.90;;;;;;4748039;30;20426;-79
2022/12/31 07:49:23;;;;;;;13.13;6.40;;;11.60;99.90;;;;;;4733909;30;20052;-79
2022/12/31 07:51:50;;;;;;;9.88;5.05;;;11.50;99.90;;;;;;4734091;30;20052;-79
2022/12/31 07:54:15;;;;;;;12.68;7.05;;;11.60;99.90;;;;;;4734408;30;20149;-79
2022/12/31 07:56:42;;;;;;;12.93;5.93;;;11.60;99.90;;;;;;4719262;30;20506;-78
2022/12/31 07:59:26;;;;;;;5.55;4.10;;;11.60;99.90;;;;;;4733175;30;20052;-80
2022/12/31 08:02:25;;;;;;;8.65;5.00;;;11.60;99.90;;;;;;4751020;30;20060;-78
2022/12/31 08:05:21;;;;;;;24.50;12.25;;;11.50;99.90;;;;;;4746770;30;20056;-81
2022/12/31 08:07:58;;;;;;;9.35;5.45;;;11.50;99.90;;;;;;4733442;30;20091;-81
2022/12/31 08:10:33;;;;;;;12.32;5.35;;;11.50;99.90;;;;;;4736531;30;20048;-82
2022/12/31 08:13:07;;;;;;;9.88;4.38;;;11.60;99.90;;;;;;4752066;30;20147;-81
2022/12/31 08:15:33;;;;;;;3.50;2.40;;;11.50;99.90;;;;;;4737459;30;20099;-82
2022/12/31 08:17:59;;;;;;;5.57;2.88;;;11.50;99.90;;;;;;4737834;30;20152;-81
2022/12/31 08:20:26;;;;;;;4.95;2.72;;;11.60;99.90;;;;;;4737417;30;20088;-81
2022/12/31 08:22:55;;;;;;;5.38;3.40;;;11.50;99.90;;;;;;4722797;30;20067;-82
2022/12/31 08:25:49;;;;;;;4.90;3.10;;;11.50;99.90;;;;;;4752210;30;20048;-81
2022/12/31 08:28:28;;;;;;;7.18;3.58;;;11.60;99.90;;;;;;4751530;30;20107;-81
2022/12/31 08:31:03;;;;;;;7.68;3.40;;;11.50;99.90;;;;;;4751714;30;20493;-82
2022/12/31 08:33:41;;;;;;;8.07;3.70;;;11.60;99.90;;;;;;4751965;30;20639;-82
2022/12/31 08:36:06;;;;;;;7.25;4.05;;;11.60;99.90;;;;;;4748752;30;20056;-81
2022/12/31 08:39:10;;;;;;;7.13;3.63;;;11.60;99.90;;;;;;4751366;30;20052;-80
2022/12/31 08:41:45;;;;;;;7.70;3.90;;;11.70;99.90;;;;;;4733923;30;20068;-83
2022/12/31 08:44:38;;;;;;;5.60;2.90;;;11.60;99.90;;;;;;4736530;30;20071;-81
2022/12/31 08:47:23;;;;;;;7.35;3.20;;;11.80;99.90;;;;;;4742242;30;20064;-83
2022/12/31 08:49:49;;;;;;;5.63;2.95;;;11.80;99.90;;;;;;4719357;30;20060;-81
2022/12/31 08:52:23;;;;;;;4.82;2.58;;;11.80;99.90;;;;;;4722455;30;20061;-81
2022/12/31 08:54:49;;;;;;;5.00;2.63;;;11.90;99.90;;;;;;4769206;30;20051;-81
2022/12/31 08:57:24;;;;;;;13.73;8.73;;;12.00;99.90;;;;;;4754761;30;20489;-80
2022/12/31 09:00:02;;;;;;;3.97;2.15;;;12.00;99.90;;;;;;4768770;30;20108;-81
2022/12/31 09:02:43;;;;;;;3.83;2.28;;;11.90;99.90;;;;;;4768965;30;20048;-84
2022/12/31 09:05:51;;;;;;;3.97;2.50;;;12.10;99.90;;;;;;4754772;30;20055;-80
2022/12/31 09:08:47;;;;;;;3.10;2.25;;;12.00;99.90;;;;;;4742277;30;20124;-83
2022/12/31 09:11:23;;;;;;;3.95;2.17;;;12.10;99.90;;;;;;4768495;30;20048;-83
2022/12/31 09:14:01;;;;;;;3.05;2.30;;;12.20;99.90;;;;;;4754328;30;20495;-81
2022/12/31 09:16:41;;;;;;;4.15;2.55;;;12.30;99.90;;;;;;4754353;30;20113;-79
2022/12/31 09:19:09;;;;;;;7.10;4.47;;;12.40;99.90;;;;;;4769144;30;20132;-81
2022/12/31 09:21:36;;;;;;;4.45;2.88;;;12.50;99.90;;;;;;4754994;30;20079;-82
2022/12/31 09:24:03;;;;;;;4.63;2.88;;;12.40;99.90;;;;;;4735839;30;20070;-81
2022/12/31 09:27:08;;;;;;;4.03;2.33;;;12.50;99.90;;;;;;4736691;30;20064;-81
2022/12/31 09:29:59;;;;;;;3.10;2.38;;;12.70;99.90;;;;;;4751098;30;20252;-80
2022/12/31 09:32:43;;;;;;;3.55;2.70;;;12.70;99.90;;;;;;4736220;30;20091;-81
2022/12/31 09:35:32;;;;;;;5.32;3.10;;;12.80;99.90;;;;;;4750626;30;20060;-78
2022/12/31 09:38:19;;;;;;;3.17;2.40;;;13.10;99.90;;;;;;4751041;30;20078;-80
2022/12/31 09:40:56;;;;;;;7.75;4.55;;;13.00;99.90;;;;;;4750924;30;20094;-82
2022/12/31 09:43:40;;;;;;;35.70;7.10;;;13.20;99.90;;;;;;4736228;30;20149;-82
2022/12/31 09:46:23;;;;;;;12.43;6.07;;;13.30;99.90;;;;;;4737378;30;20060;-80
2022/12/31 09:49:22;;;;;;;8.60;4.88;;;13.40;99.90;;;;;;4753269;30;20155;-79
2022/12/31 09:52:06;;;;;;;13.63;6.43;;;13.40;99.90;;;;;;4753855;30;20112;-80
2022/12/31 09:54:47;;;;;;;14.18;8.80;;;13.50;99.90;;;;;;4768525;30;20087;-80
2022/12/31 09:57:49;;;;;;;12.35;5.63;;;13.40;99.90;;;;;;4753877;30;20101;-80
2022/12/31 10:00:21;;;;;;;8.63;4.50;;;13.60;99.90;;;;;;4753278;30;20586;-77
2022/12/31 10:03:18;;;;;;;10.95;6.60;;;13.50;99.90;;;;;;4768279;30;20059;-78
2022/12/31 10:06:09;;;;;;;7.00;4.63;;;13.60;99.90;;;;;;4767975;30;20524;-80
2022/12/31 10:09:04;;;;;;;4.15;2.53;;;13.70;99.90;;;;;;4753554;30;20118;-78
2022/12/31 10:11:39;;;;;;;4.88;2.60;;;13.70;99.90;;;;;;4753131;30;20078;-81
2022/12/31 10:14:16;;;;;;;2.25;1.30;;;13.70;99.90;;;;;;4753439;30;20448;-78
2022/12/31 10:16:58;;;;;;;2.35;0.95;;;13.80;99.90;;;;;;4753273;30;20067;-80
2022/12/31 10:19:56;;;;;;;1.40;0.80;;;13.80;99.90;;;;;;4768187;30;20093;-78
2022/12/31 10:23:16;;;;;;;1.23;0.80;;;13.90;99.90;;;;;;4767627;30;20060;-77
2022/12/31 10:26:03;;;;;;;1.35;0.85;;;14.00;99.90;;;;;;4719187;30;20060;-81
2022/12/31 10:28:44;;;;;;;1.95;0.98;;;14.00;99.90;;;;;;4750278;30;20059;-78
2022/12/31 10:31:13;;;;;;;2.85;0.85;;;14.00;99.90;;;;;;4767617;30;20048;-80
2022/12/31 10:33:50;;;;;;;2.10;1.00;;;14.10;99.90;;;;;;4767725;30;20565;-80
2022/12/31 10:36:22;;;;;;;2.55;1.00;;;14.00;99.90;;;;;;4752672;30;20158;-79
2022/12/31 10:38:47;;;;;;;2.30;0.80;;;14.20;99.90;;;;;;4755624;30;20048;-78
2022/12/31 10:41:25;;;;;;;3.78;0.90;;;14.20;99.90;;;;;;4742811;30;20106;-81
2022/12/31 10:44:19;;;;;;;3.60;0.80;;;14.20;99.90;;;;;;4748958;30;20486;-77
2022/12/31 10:47:13;;;;;;;1.85;1.00;;;14.20;99.90;;;;;;4731619;30;20056;-79
2022/12/31 10:49:54;;;;;;;3.10;1.20;;;14.20;99.90;;;;;;4749130;30;20126;-76
2022/12/31 10:53:10;;;;;;;4.40;1.17;;;14.20;99.90;;;;;;4749220;30;20476;-79
2022/12/31 10:56:06;;;;;;;4.10;1.05;;;14.30;99.90;;;;;;4733775;30;20062;-77
2022/12/31 10:58:32;;;;;;;1.08;0.75;;;14.30;99.90;;;;;;4737368;30;20064;-77
2022/12/31 11:01:09;;;;;;;3.38;0.90;;;14.40;99.90;;;;;;4731995;30;20644;-78
2022/12/31 11:03:35;;;;;;;2.45;0.95;;;14.50;99.90;;;;;;4733405;30;20111;-77
2022/12/31 11:06:30;;;;;;;2.67;1.02;;;14.50;99.90;;;;;;4734168;30;20095;-77
2022/12/31 11:09:11;;;;;;;3.38;1.13;;;14.60;99.90;;;;;;4736290;30;20060;-85
2022/12/31 11:11:49;;;;;;;4.32;1.15;;;14.60;99.90;;;;;;4736499;30;20079;-81
2022/12/31 11:14:36;;;;;;;5.30;1.67;;;14.60;99.90;;;;;;4733842;30;20067;-78
2022/12/31 11:17:09;;;;;;;9.00;3.55;;;14.60;99.90;;;;;;4734832;30;20067;-74
2022/12/31 11:19:42;;;;;;;9.32;2.85;;;14.60;99.90;;;;;;4719534;30;20063;-79
2022/12/31 11:22:20;;;;;;;6.50;1.30;;;14.50;99.90;;;;;;4733718;30;20069;-75
2022/12/31 11:25:07;;;;;;;6.20;1.85;;;14.50;99.90;;;;;;4733930;30;20091;-76
2022/12/31 11:27:45;;;;;;;4.50;0.85;;;14.50;99.90;;;;;;4734045;30;20137;-75
2022/12/31 11:30:25;;;;;;;1.92;0.88;;;14.60;99.90;;;;;;4719083;30;20144;-78
2022/12/31 11:33:06;;;;;;;3.77;1.07;;;14.60;99.90;;;;;;4719099;30;20049;-75
2022/12/31 11:36:03;;;;;;;4.15;1.15;;;14.60;99.90;;;;;;4719150;30;20053;-76
2022/12/31 11:38:41;;;;;;;6.72;1.38;;;14.60;99.90;;;;;;4733838;30;20056;-77
2022/12/31 11:41:11;;;;;;;3.38;1.15;;;14.60;99.90;;;;;;4718941;30;20146;-79
2022/12/31 11:43:59;;;;;;;5.50;1.27;;;14.70;99.90;;;;;;4719245;30;20557;-83
2022/12/31 11:46:50;;;;;;;4.05;1.70;;;14.70;99.90;;;;;;4733803;30;20056;-80
2022/12/31 11:49:37;;;;;;;3.25;1.25;;;14.70;99.90;;;;;;4718276;30;20068;-78
2022/12/31 11:52:30;;;;;;;6.45;2.40;;;14.70;99.90;;;;;;4718988;30;20063;-80
2022/12/31 11:55:26;;;;;;;4.43;1.30;;;14.50;99.90;;;;;;4733432;30;20143;-77
2022/12/31 11:57:52;;;;;;;2.65;1.00;;;14.60;99.90;;;;;;4719019;30;20095;-76
2022/12/31 12:00:21;;;;;;;4.07;1.27;;;14.60;99.90;;;;;;4719019;30;20553;-75
2022/12/31 12:02:50;;;;;;;3.40;1.48;;;14.60;99.90;;;;;;4733559;30;20063;-78
2022/12/31 12:05:19;;;;;;;5.97;1.45;;;14.60;99.90;;;;;;4718443;30;20075;-82
2022/12/31 12:07:48;;;;;;;6.07;1.38;;;14.50;99.90;;;;;;4733521;30;20063;-77
2022/12/31 12:10:30;;;;;;;2.30;1.10;;;14.40;99.90;;;;;;4718563;30;20057;-80
2022/12/31 12:12:56;;;;;;;;;;;14.40;99.90;;;;;;4733965;30;20143;-77
2022/12/31 12:15:35;;;;;;;1.20;0.63;;;14.40;99.90;;;;;;4733503;30;20426;-76
2022/12/31 12:18:13;;;;;;;3.53;1.00;;;14.40;99.90;;;;;;4718695;30;20059;-77
2022/12/31 12:20:40;;;;;;;3.08;1.20;;;14.40;99.90;;;;;;4718872;30;20071;-76
2022/12/31 12:23:23;;;;;;;3.78;2.33;;;14.40;99.90;;;;;;4732891;30;20114;-76
2022/12/31 12:25:50;;;;;;;3.72;2.33;;;14.50;99.90;;;;;;4718871;30;20131;-79
2022/12/31 12:28:28;;;;;;;3.92;1.58;;;14.50;99.90;;;;;;4718536;30;20140;-77
2022/12/31 12:31:21;;;;;;;3.22;1.25;;;14.40;99.90;;;;;;4733103;30;20052;-78
2022/12/31 12:33:48;;;;;;;2.88;1.60;;;14.40;99.90;;;;;;4732292;30;20499;-78
2022/12/31 12:36:16;;;;;;;4.25;1.60;;;14.40;99.90;;;;;;4718666;30;20087;-77
2022/12/31 12:38:42;;;;;;;3.20;1.70;;;14.40;99.90;;;;;;4733261;30;20126;-82
2022/12/31 12:41:26;;;;;;;3.92;1.90;;;14.40;99.90;;;;;;4733054;30;20052;-79
2022/12/31 12:44:06;;;;;;;1.95;1.60;;;14.40;99.90;;;;;;4733292;30;20060;-79
2022/12/31 12:46:37;;;;;;;2.53;1.48;;;14.40;99.90;;;;;;4719342;30;20048;-77
2022/12/31 12:49:04;;;;;;;3.53;2.17;;;14.30;99.90;;;;;;4735924;30;20122;-78
2022/12/31 12:52:07;;;;;;;3.10;2.10;;;14.50;99.90;;;;;;4721860;30;20060;-78
2022/12/31 12:54:42;;;;;;;3.28;2.28;;;14.50;99.90;;;;;;4735581;30;20065;-76
2022/12/31 12:57:32;;;;;;;5.05;2.42;;;14.50;99.90;;;;;;4736227;30;20064;-78
2022/12/31 13:00:08;;;;;;;6.03;2.85;;;14.60;99.90;;;;;;4721698;30;20153;-77
2022/12/31 13:02:53;;;;;;;4.35;2.38;;;14.60;99.90;;;;;;4721608;30;20387;-77
2022/12/31 13:05:50;;;;;;;3.60;2.20;;;14.60;99.90;;;;;;4737002;30;20384;-78
2022/12/31 13:09:03;;;;;;;4.57;2.88;;;14.60;99.90;;;;;;4736063;30;20088;-78
2022/12/31 13:11:45;;;;;;;6.32;3.17;;;14.60;99.90;;;;;;4735391;30;20067;-78
2022/12/31 13:14:45;;;;;;;6.53;3.05;;;14.60;99.90;;;;;;4735636;30;20053;-80
2022/12/31 13:17:29;;;;;;;4.60;2.70;;;14.60;99.90;;;;;;4735512;30;20076;-78
2022/12/31 13:20:10;;;;;;;3.90;2.30;;;14.60;99.90;;;;;;4736027;30;20060;-79
2022/12/31 13:22:48;;;;;;;4.00;2.20;;;14.60;99.90;;;;;;4735701;30;20064;-79
2022/12/31 13:25:36;;;;;;;4.60;2.10;;;14.60;99.90;;;;;;4735837;30;20062;-75